Time;durP1;ratioP1;P1;durP2;ratioP2;P2;SDS_P1;SDS_P2;PMS_P1;PMS_P2;Temp;Humidity;BMP_temperature;BMP_pressure;BME280_temperature;BME280_humidity;BME280_pressure;Samples;Min_cycle;Max_cycle;Signal;HPM_P1;HPM_P2
2023/08/09 00:00:49;;;;;;;2.17;1.50;;;;;;;;;;5103140;28;20038;-75
2023/08/09 00:03:14;;;;;;;2.05;1.30;;;;;;;;;;5093394;28;20027;-76
2023/08/09 00:05:39;;;;;;;2.03;1.30;;;;;;;;;;5091310;28;20035;-75
2023/08/09 00:08:05;;;;;;;2.35;1.33;;;;;;;;;;5089353;28;20089;-74
2023/08/09 00:10:32;;;;;;;2.00;1.30;;;;;;;;;;5092580;28;20081;-75
2023/08/09 00:12:57;;;;;;;1.70;1.23;;;;;;;;;;5091985;28;20034;-75
2023/08/09 00:15:23;;;;;;;2.17;1.15;;;;;;;;;;5094768;28;20024;-75
2023/08/09 00:17:48;;;;;;;1.98;1.30;;;;;;;;;;5096420;28;20024;-76
2023/08/09 00:20:14;;;;;;;2.40;1.73;;;;;;;;;;5089410;28;20428;-75
2023/08/09 00:22:41;;;;;;;2.67;1.60;;;;;;;;;;5085339;28;20048;-75
2023/08/09 00:25:08;;;;;;;2.20;1.40;;;;;;;;;;5091029;28;20051;-75
2023/08/09 00:27:34;;;;;;;2.20;1.50;;;;;;;;;;5088956;28;20024;-75
2023/08/09 00:29:59;;;;;;;2.22;1.20;;;;;;;;;;5098518;28;20510;-75
2023/08/09 00:32:25;;;;;;;2.80;1.70;;;;;;;;;;5083590;28;20053;-75
2023/08/09 00:34:50;;;;;;;2.42;1.65;;;;;;;;;;5087871;28;20020;-74
2023/08/09 00:37:15;;;;;;;3.20;2.25;;;;;;;;;;5090405;28;20027;-75
2023/08/09 00:39:41;;;;;;;7.53;2.70;;;;;;;;;;5085072;28;20169;-75
2023/08/09 00:42:06;;;;;;;2.42;1.67;;;;;;;;;;5086049;28;20082;-75
2023/08/09 00:44:32;;;;;;;4.18;2.30;;;;;;;;;;5086603;28;20052;-76
2023/08/09 00:46:57;;;;;;;6.18;2.75;;;;;;;;;;5079431;28;20361;-76
2023/08/09 00:49:23;;;;;;;3.08;2.05;;;;;;;;;;5089218;28;20442;-75
2023/08/09 00:51:49;;;;;;;3.38;1.70;;;;;;;;;;5095867;28;20103;-76
2023/08/09 00:54:15;;;;;;;2.67;1.90;;;;;;;;;;5090809;28;20111;-75
2023/08/09 00:56:42;;;;;;;4.18;1.77;;;;;;;;;;5080464;28;20046;-75
2023/08/09 00:59:07;;;;;;;2.67;1.70;;;;;;;;;;5079872;28;20093;-75
2023/08/09 01:01:33;;;;;;;3.22;2.08;;;;;;;;;;5090675;28;20491;-75
2023/08/09 01:03:58;;;;;;;3.45;1.90;;;;;;;;;;5095974;28;20046;-75
2023/08/09 01:06:33;;;;;;;3.38;2.22;;;;;;;;;;5090922;28;20012;-75
2023/08/09 01:09:04;;;;;;;2.50;1.85;;;;;;;;;;5081223;28;20570;-75
2023/08/09 01:11:39;;;;;;;6.55;2.47;;;;;;;;;;5086690;28;20369;-75
2023/08/09 01:14:07;;;;;;;3.40;1.90;;;;;;;;;;5079349;28;20040;-75
2023/08/09 01:16:36;;;;;;;3.17;1.98;;;;;;;;;;5090820;28;20095;-75
2023/08/09 01:19:09;;;;;;;2.45;1.70;;;;;;;;;;5086208;28;20108;-75
2023/08/09 01:21:39;;;;;;;2.13;1.60;;;;;;;;;;5093186;28;20021;-76
2023/08/09 01:24:08;;;;;;;3.17;1.77;;;;;;;;;;5091776;28;20032;-75
2023/08/09 01:26:33;;;;;;;2.90;1.95;;;;;;;;;;5093502;28;20491;-75
2023/08/09 01:28:58;;;;;;;3.03;1.73;;;;;;;;;;5089562;28;20028;-75
2023/08/09 01:31:24;;;;;;;2.63;1.80;;;;;;;;;;5090179;28;20149;-76
2023/08/09 01:33:49;;;;;;;2.17;1.40;;;;;;;;;;5094997;28;20039;-75
2023/08/09 01:36:35;;;;;;;2.67;1.80;;;;;;;;;;5095670;28;20469;-75
2023/08/09 01:39:06;;;;;;;3.20;1.75;;;;;;;;;;5091032;28;20024;-75
2023/08/09 01:41:33;;;;;;;2.08;1.48;;;;;;;;;;5093631;28;20066;-75
2023/08/09 01:43:58;;;;;;;2.60;1.50;;;;;;;;;;5094324;28;20031;-76
2023/08/09 01:46:25;;;;;;;2.67;1.40;;;;;;;;;;5091684;28;20024;-75
2023/08/09 01:48:51;;;;;;;2.50;1.65;;;;;;;;;;5078838;28;20024;-75
2023/08/09 01:51:16;;;;;;;2.90;1.45;;;;;;;;;;5088721;28;20024;-75
2023/08/09 01:53:41;;;;;;;2.80;1.50;;;;;;;;;;5094900;28;20081;-75
2023/08/09 01:56:07;;;;;;;3.15;1.77;;;;;;;;;;5096553;28;20062;-75
2023/08/09 01:58:32;;;;;;;2.47;1.55;;;;;;;;;;5094783;28;20032;-75
2023/08/09 02:00:58;;;;;;;1.98;1.50;;;;;;;;;;5091908;28;20020;-75
2023/08/09 02:03:25;;;;;;;2.40;1.60;;;;;;;;;;5096872;28;20088;-75
2023/08/09 02:05:51;;;;;;;2.80;1.60;;;;;;;;;;5092172;28;20507;-75
2023/08/09 02:08:17;;;;;;;3.38;1.52;;;;;;;;;;5092965;28;20026;-75
2023/08/09 02:10:42;;;;;;;2.97;1.60;;;;;;;;;;5089999;28;20020;-75
2023/08/09 02:13:07;;;;;;;2.55;1.70;;;;;;;;;;5094072;28;20028;-75
2023/08/09 02:15:33;;;;;;;2.72;1.90;;;;;;;;;;5092622;28;20073;-75
2023/08/09 02:17:58;;;;;;;2.40;1.60;;;;;;;;;;5098133;28;20016;-75
2023/08/09 02:20:24;;;;;;;3.13;1.95;;;;;;;;;;5091396;28;20410;-75
2023/08/09 02:22:49;;;;;;;2.72;1.67;;;;;;;;;;5089714;28;20062;-75
2023/08/09 02:25:15;;;;;;;2.60;1.60;;;;;;;;;;5093585;28;20548;-75
2023/08/09 02:27:40;;;;;;;2.63;1.70;;;;;;;;;;5090627;28;20468;-75
2023/08/09 02:30:06;;;;;;;3.75;1.65;;;;;;;;;;5087923;28;20069;-75
2023/08/09 02:32:32;;;;;;;2.22;1.67;;;;;;;;;;5086173;28;20024;-75
2023/08/09 02:34:58;;;;;;;3.00;1.77;;;;;;;;;;5078497;28;20035;-75
2023/08/09 02:37:24;;;;;;;3.92;1.65;;;;;;;;;;5099363;28;20487;-75
2023/08/09 02:39:50;;;;;;;3.55;1.67;;;;;;;;;;5093396;28;20028;-75
2023/08/09 02:42:16;;;;;;;2.50;1.67;;;;;;;;;;5092737;28;20035;-75
2023/08/09 02:44:42;;;;;;;3.78;1.70;;;;;;;;;;5086676;28;20023;-75
2023/08/09 02:47:08;;;;;;;2.83;2.00;;;;;;;;;;5089657;28;20020;-75
2023/08/09 02:49:34;;;;;;;2.00;1.55;;;;;;;;;;5095779;28;20081;-75
2023/08/09 02:51:59;;;;;;;2.70;1.70;;;;;;;;;;5093205;28;20024;-76
2023/08/09 02:54:24;;;;;;;2.65;1.67;;;;;;;;;;5080044;28;20028;-75
2023/08/09 02:56:50;;;;;;;2.47;1.63;;;;;;;;;;5080400;28;20103;-75
2023/08/09 02:59:15;;;;;;;2.90;1.88;;;;;;;;;;5089365;28;20521;-75
2023/08/09 03:01:44;;;;;;;2.65;1.83;;;;;;;;;;5097491;28;20043;-75
2023/08/09 03:04:10;;;;;;;2.78;1.60;;;;;;;;;;5091012;28;20051;-75
2023/08/09 03:06:35;;;;;;;2.00;1.40;;;;;;;;;;5088539;28;20540;-75
2023/08/09 03:09:02;;;;;;;2.50;1.60;;;;;;;;;;5092091;28;20113;-75
2023/08/09 03:11:28;;;;;;;2.55;1.60;;;;;;;;;;5085002;28;20041;-75
2023/08/09 03:13:53;;;;;;;2.50;1.70;;;;;;;;;;5092909;28;20063;-75
2023/08/09 03:16:19;;;;;;;2.40;1.45;;;;;;;;;;5090097;28;20432;-75
2023/08/09 03:18:44;;;;;;;1.83;1.40;;;;;;;;;;5093436;28;20028;-76
2023/08/09 03:21:10;;;;;;;3.72;1.40;;;;;;;;;;5092313;28;20484;-75
2023/08/09 03:23:36;;;;;;;2.03;1.42;;;;;;;;;;5092744;28;20027;-75
2023/08/09 03:26:01;;;;;;;2.17;1.48;;;;;;;;;;5087545;28;20398;-76
2023/08/09 03:28:27;;;;;;;1.90;1.35;;;;;;;;;;5088007;28;20099;-75
2023/08/09 03:30:53;;;;;;;2.45;1.77;;;;;;;;;;5089353;28;20480;-76
2023/08/09 03:33:18;;;;;;;3.33;1.50;;;;;;;;;;5090636;28;20035;-75
2023/08/09 03:35:44;;;;;;;2.33;1.60;;;;;;;;;;5109166;28;20391;-75
2023/08/09 03:38:10;;;;;;;2.20;1.70;;;;;;;;;;5092313;28;20020;-76
2023/08/09 03:40:36;;;;;;;2.60;1.90;;;;;;;;;;5088651;28;20031;-75
2023/08/09 03:43:01;;;;;;;2.35;1.50;;;;;;;;;;5089671;28;20050;-75
2023/08/09 03:45:27;;;;;;;3.00;1.73;;;;;;;;;;5090274;28;20019;-75
2023/08/09 03:47:52;;;;;;;3.08;2.15;;;;;;;;;;5094673;28;20092;-76
2023/08/09 03:50:18;;;;;;;4.07;2.08;;;;;;;;;;5091778;28;20040;-75
2023/08/09 03:52:43;;;;;;;2.88;1.92;;;;;;;;;;5087047;28;20032;-75
2023/08/09 03:55:09;;;;;;;5.22;2.22;;;;;;;;;;5087102;28;20082;-75
2023/08/09 03:57:34;;;;;;;3.70;1.92;;;;;;;;;;5092602;28;20077;-75
2023/08/09 04:00:00;;;;;;;3.00;2.00;;;;;;;;;;5092598;28;20058;-75
2023/08/09 04:02:26;;;;;;;2.53;1.70;;;;;;;;;;5088285;28;20024;-75
2023/08/09 04:04:52;;;;;;;5.00;2.28;;;;;;;;;;5092458;28;20023;-87
2023/08/09 04:07:17;;;;;;;4.53;2.15;;;;;;;;;;5091798;28;20068;-87
2023/08/09 04:09:42;;;;;;;2.70;1.80;;;;;;;;;;5091282;28;20080;-87
2023/08/09 04:12:08;;;;;;;3.22;2.10;;;;;;;;;;5091496;28;20082;-86
2023/08/09 04:14:33;;;;;;;4.60;2.47;;;;;;;;;;5089301;28;20019;-85
2023/08/09 04:16:59;;;;;;;3.40;2.40;;;;;;;;;;5092914;28;20387;-87
2023/08/09 04:19:26;;;;;;;3.38;2.38;;;;;;;;;;5091247;28;20031;-86
2023/08/09 04:21:52;;;;;;;3.85;2.30;;;;;;;;;;5091301;28;20060;-87
2023/08/09 04:24:18;;;;;;;4.15;2.60;;;;;;;;;;5087959;28;20387;-88
2023/08/09 04:26:44;;;;;;;3.20;2.22;;;;;;;;;;5091433;28;20032;-87
2023/08/09 04:29:09;;;;;;;5.93;2.42;;;;;;;;;;5081263;28;20108;-85
2023/08/09 04:31:34;;;;;;;3.72;2.60;;;;;;;;;;5089003;28;20020;-86
2023/08/09 04:34:00;;;;;;;5.25;2.60;;;;;;;;;;5092355;28;20020;-87
2023/08/09 04:36:26;;;;;;;3.90;2.70;;;;;;;;;;5092561;28;20024;-86
2023/08/09 04:38:52;;;;;;;3.25;2.25;;;;;;;;;;5087538;28;20078;-88
2023/08/09 04:41:17;;;;;;;3.60;2.53;;;;;;;;;;5089395;28;20024;-87
2023/08/09 04:43:44;;;;;;;4.05;2.90;;;;;;;;;;5090285;28;20033;-87
2023/08/09 04:46:13;;;;;;;3.67;2.60;;;;;;;;;;5084532;28;20027;-87
2023/08/09 04:48:42;;;;;;;4.30;2.72;;;;;;;;;;5090888;28;20180;-87
2023/08/09 04:51:08;;;;;;;6.15;2.58;;;;;;;;;;5085333;28;20031;-87
2023/08/09 04:53:34;;;;;;;5.00;2.80;;;;;;;;;;5083346;28;20476;-87
2023/08/09 04:56:00;;;;;;;4.65;3.00;;;;;;;;;;5085711;28;20035;-86
2023/08/09 04:58:25;;;;;;;5.68;3.45;;;;;;;;;;5083980;28;20042;-87
2023/08/09 05:00:50;;;;;;;4.68;3.20;;;;;;;;;;5090395;28;20032;-86
2023/08/09 05:03:16;;;;;;;5.57;3.45;;;;;;;;;;5090803;28;20031;-88
2023/08/09 05:05:41;;;;;;;5.05;3.45;;;;;;;;;;5089079;28;20484;-85
2023/08/09 05:08:07;;;;;;;5.13;3.70;;;;;;;;;;5068874;28;20123;-86
2023/08/09 05:10:35;;;;;;;7.00;3.88;;;;;;;;;;5094905;28;20027;-87
2023/08/09 05:13:00;;;;;;;5.13;3.55;;;;;;;;;;5087296;28;20050;-87
2023/08/09 05:15:26;;;;;;;6.88;3.88;;;;;;;;;;5094449;28;20020;-86
2023/08/09 05:17:51;;;;;;;7.05;3.92;;;;;;;;;;5095082;28;20487;-86
2023/08/09 05:20:16;;;;;;;5.07;3.47;;;;;;;;;;5084811;28;20122;-87
2023/08/09 05:22:42;;;;;;;6.68;4.20;;;;;;;;;;5098902;28;20027;-86
2023/08/09 05:25:08;;;;;;;6.10;3.60;;;;;;;;;;5097001;28;20047;-86
2023/08/09 05:27:33;;;;;;;6.45;4.38;;;;;;;;;;5090029;28;20082;-87
2023/08/09 05:29:59;;;;;;;7.63;4.75;;;;;;;;;;5091032;28;20108;-87
2023/08/09 05:32:24;;;;;;;6.53;4.30;;;;;;;;;;5095648;28;20020;-86
2023/08/09 05:34:49;;;;;;;6.85;4.38;;;;;;;;;;5094623;28;20028;-86
2023/08/09 05:37:15;;;;;;;5.38;3.50;;;;;;;;;;5094246;28;20060;-87
2023/08/09 05:39:40;;;;;;;7.00;4.75;;;;;;;;;;5095463;28;20016;-86
2023/08/09 05:42:06;;;;;;;7.95;4.85;;;;;;;;;;5094013;28;20024;-85
2023/08/09 05:44:31;;;;;;;10.38;5.28;;;;;;;;;;5095109;28;20119;-86
2023/08/09 05:46:57;;;;;;;8.07;5.55;;;;;;;;;;5093825;28;20024;-86
2023/08/09 05:49:22;;;;;;;6.88;4.88;;;;;;;;;;5094220;28;20119;-86
2023/08/09 05:51:48;;;;;;;10.57;5.68;;;;;;;;;;5092866;28;20020;-86
2023/08/09 05:54:13;;;;;;;9.85;5.85;;;;;;;;;;5091022;28;20442;-87
2023/08/09 05:56:39;;;;;;;8.88;6.07;;;;;;;;;;5090447;28;20016;-86
2023/08/09 05:59:05;;;;;;;8.93;6.30;;;;;;;;;;5090765;28;20031;-87
2023/08/09 06:01:31;;;;;;;10.68;6.57;;;;;;;;;;5093472;28;20395;-85
2023/08/09 06:03:57;;;;;;;12.95;6.97;;;;;;;;;;5093786;28;20247;-86
2023/08/09 06:06:23;;;;;;;9.30;6.68;;;;;;;;;;5089970;28;20020;-87
2023/08/09 06:08:49;;;;;;;8.77;6.28;;;;;;;;;;5092641;28;20032;-86
2023/08/09 06:11:15;;;;;;;10.02;6.97;;;;;;;;;;5093471;28;20513;-86
2023/08/09 06:13:40;;;;;;;9.95;6.28;;;;;;;;;;5093544;28;20028;-86
2023/08/09 06:16:06;;;;;;;10.43;7.65;;;;;;;;;;5093418;28;20056;-84
2023/08/09 06:18:31;;;;;;;12.82;8.45;;;;;;;;;;5093324;28;20047;-86
2023/08/09 06:20:56;;;;;;;12.75;8.23;;;;;;;;;;5092216;28;20024;-86
2023/08/09 06:23:22;;;;;;;12.40;8.75;;;;;;;;;;5092942;28;20238;-86
2023/08/09 06:25:49;;;;;;;11.93;8.23;;;;;;;;;;5083396;28;20039;-86
2023/08/09 06:28:15;;;;;;;10.98;7.82;;;;;;;;;;5081291;28;20103;-86
2023/08/09 06:30:40;;;;;;;15.38;9.23;;;;;;;;;;5087793;28;20040;-86
2023/08/09 06:33:07;;;;;;;11.88;8.70;;;;;;;;;;5089196;28;20376;-86
2023/08/09 06:35:33;;;;;;;13.52;8.75;;;;;;;;;;5082608;28;20374;-85
2023/08/09 06:37:58;;;;;;;14.20;9.48;;;;;;;;;;5094140;28;20105;-86
2023/08/09 06:40:24;;;;;;;12.93;9.20;;;;;;;;;;5091513;28;20024;-85
2023/08/09 06:42:50;;;;;;;13.07;8.88;;;;;;;;;;5088177;28;20024;-86
2023/08/09 06:45:15;;;;;;;17.23;9.35;;;;;;;;;;5093013;28;20023;-87
2023/08/09 06:47:41;;;;;;;10.38;8.38;;;;;;;;;;5082354;28;20024;-86
2023/08/09 06:50:07;;;;;;;14.77;8.63;;;;;;;;;;5098287;28;20028;-87
2023/08/09 06:52:37;;;;;;;14.75;9.52;;;;;;;;;;5092858;28;20449;-87
2023/08/09 06:55:07;;;;;;;17.00;9.48;;;;;;;;;;5086464;28;20027;-85
2023/08/09 06:57:32;;;;;;;17.23;9.50;;;;;;;;;;5092335;28;20058;-85
2023/08/09 06:59:59;;;;;;;12.85;8.93;;;;;;;;;;5082210;28;20048;-87
2023/08/09 07:02:26;;;;;;;13.02;8.98;;;;;;;;;;5088743;28;20043;-87
2023/08/09 07:04:54;;;;;;;12.93;8.52;;;;;;;;;;5080815;28;20081;-86
2023/08/09 07:07:20;;;;;;;13.85;8.75;;;;;;;;;;5093568;28;20026;-86
2023/08/09 07:09:45;;;;;;;10.95;8.15;;;;;;;;;;5092784;28;20023;-86
2023/08/09 07:12:11;;;;;;;13.73;9.00;;;;;;;;;;5085320;28;20482;-86
2023/08/09 07:14:36;;;;;;;13.20;8.80;;;;;;;;;;5088894;28;20084;-85
2023/08/09 07:17:02;;;;;;;12.68;9.00;;;;;;;;;;5092523;28;20052;-87
2023/08/09 07:19:28;;;;;;;13.93;9.75;;;;;;;;;;5078141;28;20029;-82
2023/08/09 07:21:53;;;;;;;12.93;9.30;;;;;;;;;;5092457;28;20468;-87
2023/08/09 07:24:19;;;;;;;13.60;9.57;;;;;;;;;;5086374;28;20065;-87
2023/08/09 07:26:44;;;;;;;14.95;8.82;;;;;;;;;;5092030;28;20024;-87
2023/08/09 07:29:09;;;;;;;13.32;8.18;;;;;;;;;;5080541;28;20467;-87
2023/08/09 07:31:35;;;;;;;13.27;8.50;;;;;;;;;;5089230;28;20078;-86
2023/08/09 07:34:01;;;;;;;12.20;8.88;;;;;;;;;;5086942;28;20025;-75
2023/08/09 07:36:27;;;;;;;13.35;8.27;;;;;;;;;;5087809;28;20026;-89
2023/08/09 07:38:52;;;;;;;10.88;7.55;;;;;;;;;;5084244;28;20502;-89
2023/08/09 07:41:17;;;;;;;12.60;8.32;;;;;;;;;;5091891;28;20012;-89
2023/08/09 07:43:43;;;;;;;9.48;7.00;;;;;;;;;;5091844;28;20020;-89
2023/08/09 07:46:08;;;;;;;11.20;6.93;;;;;;;;;;5092887;28;20023;-88
2023/08/09 07:48:34;;;;;;;13.48;7.20;;;;;;;;;;5089620;28;20012;-88
2023/08/09 07:51:00;;;;;;;10.68;7.35;;;;;;;;;;5091812;28;20050;-87
2023/08/09 07:53:26;;;;;;;10.82;7.18;;;;;;;;;;5091675;28;20480;-89
2023/08/09 07:55:51;;;;;;;10.38;6.68;;;;;;;;;;5092781;28;20067;-89
2023/08/09 07:58:17;;;;;;;9.57;7.13;;;;;;;;;;5092412;28;20048;-88
2023/08/09 08:00:42;;;;;;;11.13;7.00;;;;;;;;;;5091882;28;20020;-89
2023/08/09 08:03:09;;;;;;;10.70;7.00;;;;;;;;;;5091788;28;20024;-88
2023/08/09 08:05:36;;;;;;;11.07;7.22;;;;;;;;;;5091240;28;20024;-89
2023/08/09 08:08:02;;;;;;;10.57;7.05;;;;;;;;;;5091724;28;20538;-88
2023/08/09 08:10:27;;;;;;;10.52;7.45;;;;;;;;;;5090725;28;20051;-90
2023/08/09 08:12:53;;;;;;;12.70;7.15;;;;;;;;;;5087906;28;20054;-89
2023/08/09 08:15:19;;;;;;;10.35;6.75;;;;;;;;;;5091622;28;20031;-88
2023/08/09 08:17:46;;;;;;;13.50;7.00;;;;;;;;;;5091749;28;20036;-89
2023/08/09 08:20:15;;;;;;;11.57;7.05;;;;;;;;;;5091898;28;20058;-87
2023/08/09 08:22:45;;;;;;;10.43;7.57;;;;;;;;;;5087697;28;20024;-87
2023/08/09 08:25:16;;;;;;;11.65;7.45;;;;;;;;;;5086818;28;20110;-89
2023/08/09 08:27:45;;;;;;;10.73;6.55;;;;;;;;;;5088441;28;20024;-89
2023/08/09 08:30:13;;;;;;;11.45;7.43;;;;;;;;;;5084822;28;20471;-88
2023/08/09 08:32:38;;;;;;;9.93;7.32;;;;;;;;;;5090724;28;20016;-90
2023/08/09 08:35:04;;;;;;;9.20;5.70;;;;;;;;;;5091836;28;20020;-86
2023/08/09 08:37:30;;;;;;;9.73;5.72;;;;;;;;;;5093010;28;20019;-89
2023/08/09 08:39:55;;;;;;;12.80;8.02;;;;;;;;;;5091085;28;20027;-86
2023/08/09 08:42:21;;;;;;;11.05;6.57;;;;;;;;;;5093179;28;20059;-89
2023/08/09 08:44:47;;;;;;;15.43;6.95;;;;;;;;;;5090272;28;20387;-88
2023/08/09 08:47:12;;;;;;;10.18;6.70;;;;;;;;;;5090178;28;20028;-89
2023/08/09 08:49:47;;;;;;;11.82;6.50;;;;;;;;;;5097119;28;20020;-89
2023/08/09 08:52:14;;;;;;;10.70;6.82;;;;;;;;;;5091723;28;20031;-90
2023/08/09 08:54:40;;;;;;;11.45;7.47;;;;;;;;;;5098729;28;20058;-89
2023/08/09 08:57:07;;;;;;;10.85;6.07;;;;;;;;;;5094792;28;20075;-89
2023/08/09 08:59:34;;;;;;;10.57;6.40;;;;;;;;;;5093376;28;20027;-90
2023/08/09 09:02:01;;;;;;;9.35;6.47;;;;;;;;;;5089699;28;20024;-90
2023/08/09 09:04:26;;;;;;;10.52;7.25;;;;;;;;;;5084681;28;20031;-90
2023/08/09 09:06:52;;;;;;;9.68;6.57;;;;;;;;;;5097154;28;20024;-90
2023/08/09 09:09:17;;;;;;;12.18;7.43;;;;;;;;;;5081835;28;20024;-88
2023/08/09 09:11:44;;;;;;;10.38;7.10;;;;;;;;;;5073304;28;20048;-90
2023/08/09 09:14:11;;;;;;;12.63;7.25;;;;;;;;;;5097080;28;20463;-88
2023/08/09 09:16:36;;;;;;;11.85;7.60;;;;;;;;;;5086825;28;20028;-89
2023/08/09 09:19:02;;;;;;;11.60;7.70;;;;;;;;;;5092658;28;20384;-90
2023/08/09 09:21:31;;;;;;;11.93;5.38;;;;;;;;;;5090361;28;20085;-91
2023/08/09 09:23:57;;;;;;;8.25;5.38;;;;;;;;;;5096502;28;20039;-90
2023/08/09 09:26:23;;;;;;;9.70;6.10;;;;;;;;;;5096795;28;20106;-90
2023/08/09 09:28:48;;;;;;;9.15;5.72;;;;;;;;;;5081449;28;20038;-88
2023/08/09 09:31:18;;;;;;;8.88;5.68;;;;;;;;;;5092840;28;20103;-90
2023/08/09 09:33:47;;;;;;;8.68;5.20;;;;;;;;;;5096759;28;20106;-89
2023/08/09 09:36:13;;;;;;;7.00;5.03;;;;;;;;;;5087791;28;20024;-90
2023/08/09 09:38:39;;;;;;;8.73;5.68;;;;;;;;;;5096041;28;20024;-91
2023/08/09 09:41:07;;;;;;;7.03;5.13;;;;;;;;;;5095665;28;20085;-90
2023/08/09 09:43:38;;;;;;;7.47;6.20;;;;;;;;;;5082372;28;20486;-91
2023/08/09 09:46:03;;;;;;;10.95;5.72;;;;;;;;;;5092122;28;20024;-91
2023/08/09 09:48:29;;;;;;;7.70;5.53;;;;;;;;;;5095732;28;20141;-89
2023/08/09 09:50:55;;;;;;;11.95;5.90;;;;;;;;;;5097585;28;20153;-90
2023/08/09 09:53:21;;;;;;;7.10;5.30;;;;;;;;;;5096300;28;20391;-83
2023/08/09 09:55:47;;;;;;;6.80;5.32;;;;;;;;;;5091642;28;20020;-75
2023/08/09 09:58:13;;;;;;;7.00;4.80;;;;;;;;;;5093868;28;20024;-77
2023/08/09 10:00:48;;;;;;;7.72;5.43;;;;;;;;;;5094464;28;20053;-76
2023/08/09 10:03:17;;;;;;;8.15;5.00;;;;;;;;;;5098257;28;20023;-75
2023/08/09 10:05:45;;;;;;;6.82;4.80;;;;;;;;;;5095035;28;20035;-76
2023/08/09 10:08:12;;;;;;;8.90;4.93;;;;;;;;;;5092430;28;20024;-76
2023/08/09 10:10:41;;;;;;;6.82;4.13;;;;;;;;;;5092550;28;20047;-76
2023/08/09 10:13:07;;;;;;;4.93;3.53;;;;;;;;;;5091237;28;20031;-76
2023/08/09 10:15:47;;;;;;;6.20;4.05;;;;;;;;;;5092305;28;20035;-76
2023/08/09 10:18:23;;;;;;;6.30;3.80;;;;;;;;;;5098303;28;20023;-76
2023/08/09 10:20:51;;;;;;;10.93;4.20;;;;;;;;;;5094436;28;20069;-76
2023/08/09 10:23:22;;;;;;;7.90;4.80;;;;;;;;;;5096617;28;20024;-76
2023/08/09 10:25:48;;;;;;;7.57;4.45;;;;;;;;;;5092766;28;20020;-77
2023/08/09 10:28:14;;;;;;;6.30;4.38;;;;;;;;;;5102541;28;20423;-75
2023/08/09 10:30:54;;;;;;;11.25;4.50;;;;;;;;;;5095546;28;20062;-76
2023/08/09 10:33:19;;;;;;;8.25;3.83;;;;;;;;;;5093421;28;20058;-75
2023/08/09 10:35:54;;;;;;;7.72;4.15;;;;;;;;;;5111054;27;20048;-76
2023/08/09 10:38:37;;;;;;;5.88;4.07;;;;;;;;;;5094213;28;20019;-76
2023/08/09 10:41:11;;;;;;;6.00;4.57;;;;;;;;;;5089030;28;20097;-75
2023/08/09 10:43:37;;;;;;;6.28;4.15;;;;;;;;;;5089547;28;20166;-76
2023/08/09 10:46:18;;;;;;;8.38;5.20;;;;;;;;;;5093625;28;20106;-76
2023/08/09 10:48:58;;;;;;;7.18;4.18;;;;;;;;;;5095920;28;20019;-75
2023/08/09 10:51:24;;;;;;;6.15;3.63;;;;;;;;;;5096337;28;20111;-76
2023/08/09 10:54:05;;;;;;;5.53;3.65;;;;;;;;;;5096639;28;20056;-77
2023/08/09 10:56:41;;;;;;;54.67;6.95;;;;;;;;;;5091180;28;20487;-76
2023/08/09 10:59:09;;;;;;;4.20;3.30;;;;;;;;;;5087305;28;20020;-76
2023/08/09 11:01:36;;;;;;;4.85;3.42;;;;;;;;;;5091986;28;20020;-76
2023/08/09 11:04:07;;;;;;;6.90;4.45;;;;;;;;;;5084835;28;20020;-75
2023/08/09 11:06:34;;;;;;;6.45;4.85;;;;;;;;;;5084317;28;20110;-77
2023/08/09 11:09:11;;;;;;;8.27;5.05;;;;;;;;;;5091667;28;20023;-75
2023/08/09 11:11:37;;;;;;;6.57;4.60;;;;;;;;;;5085569;28;20008;-77
2023/08/09 11:14:04;;;;;;;6.40;4.60;;;;;;;;;;5086194;28;20032;-75
2023/08/09 11:16:30;;;;;;;6.40;4.85;;;;;;;;;;5104616;28;20020;-77
2023/08/09 11:19:16;;;;;;;5.57;3.83;;;;;;;;;;5092646;28;20016;-76
2023/08/09 11:21:47;;;;;;;5.93;4.10;;;;;;;;;;5090923;28;20035;-76
2023/08/09 11:24:18;;;;;;;5.82;4.28;;;;;;;;;;5076240;28;20031;-77
2023/08/09 11:26:54;;;;;;;6.55;4.15;;;;;;;;;;5083126;28;20484;-77
2023/08/09 11:29:21;;;;;;;7.43;4.07;;;;;;;;;;5085790;28;20065;-75
2023/08/09 11:31:55;;;;;;;8.30;2.80;;;;;;;;;;5090503;28;20560;-76
2023/08/09 11:34:22;;;;;;;3.55;2.65;;;;;;;;;;5085265;28;20092;-76
2023/08/09 11:36:49;;;;;;;4.30;2.50;;;;;;;;;;5091861;28;20035;-76
2023/08/09 11:39:15;;;;;;;6.95;2.80;;;;;;;;;;5083351;28;20028;-76
2023/08/09 11:41:57;;;;;;;3.42;2.30;;;;;;;;;;5092923;28;20510;-76
2023/08/09 11:44:34;;;;;;;5.05;2.92;;;;;;;;;;5093391;28;20073;-76
2023/08/09 11:47:01;;;;;;;4.03;2.85;;;;;;;;;;5090617;28;20114;-76
2023/08/09 11:49:30;;;;;;;5.55;2.90;;;;;;;;;;5089816;28;20372;-76
2023/08/09 11:51:56;;;;;;;5.70;2.92;;;;;;;;;;5087151;28;20102;-76
2023/08/09 11:54:23;;;;;;;4.70;2.83;;;;;;;;;;5090710;28;20463;-76
2023/08/09 11:56:48;;;;;;;4.90;2.30;;;;;;;;;;5091921;28;20023;-76
2023/08/09 11:59:17;;;;;;;6.38;2.80;;;;;;;;;;5091803;28;20407;-76
2023/08/09 12:01:48;;;;;;;4.00;2.58;;;;;;;;;;5091468;28;20028;-76
2023/08/09 12:04:17;;;;;;;7.50;2.30;;;;;;;;;;5090942;28;20020;-76
2023/08/09 12:06:55;;;;;;;6.00;2.25;;;;;;;;;;5087861;28;20022;-75
2023/08/09 12:09:39;;;;;;;5.28;2.22;;;;;;;;;;5093932;28;20032;-76
2023/08/09 12:12:13;;;;;;;7.47;2.30;;;;;;;;;;5088967;28;20030;-76
2023/08/09 12:14:41;;;;;;;3.55;2.03;;;;;;;;;;5096261;28;20027;-86
2023/08/09 12:17:07;;;;;;;3.55;1.67;;;;;;;;;;5089173;28;20028;-83
2023/08/09 12:19:33;;;;;;;4.15;1.65;;;;;;;;;;5103707;28;20472;-86
2023/08/09 12:21:59;;;;;;;5.15;2.00;;;;;;;;;;5087112;28;20114;-87
2023/08/09 12:24:25;;;;;;;3.55;2.08;;;;;;;;;;5092300;28;20028;-86
2023/08/09 12:26:51;;;;;;;4.47;1.95;;;;;;;;;;5090449;28;20031;-85
2023/08/09 12:29:16;;;;;;;4.72;2.40;;;;;;;;;;5086882;28;20031;-86
2023/08/09 12:31:42;;;;;;;3.70;1.75;;;;;;;;;;5080452;28;20020;-87
2023/08/09 12:34:09;;;;;;;5.07;1.92;;;;;;;;;;5091317;28;20046;-87
2023/08/09 12:36:35;;;;;;;4.22;2.15;;;;;;;;;;5086573;28;20031;-86
2023/08/09 12:39:00;;;;;;;6.78;2.10;;;;;;;;;;5088417;28;20036;-86
2023/08/09 12:41:26;;;;;;;4.38;1.77;;;;;;;;;;5090127;28;20028;-87
2023/08/09 12:43:51;;;;;;;4.55;2.42;;;;;;;;;;5085916;28;20032;-87
2023/08/09 12:46:17;;;;;;;5.28;1.80;;;;;;;;;;5084505;28;20076;-87
2023/08/09 12:48:43;;;;;;;3.70;1.70;;;;;;;;;;5085934;28;20463;-86
2023/08/09 12:51:08;;;;;;;4.90;1.63;;;;;;;;;;5086564;28;20103;-86
2023/08/09 12:53:34;;;;;;;6.15;2.45;;;;;;;;;;5082951;28;20024;-85
2023/08/09 12:55:59;;;;;;;4.15;2.13;;;;;;;;;;5087136;28;20032;-85
2023/08/09 12:58:24;;;;;;;9.20;2.10;;;;;;;;;;5077654;28;20028;-87
2023/08/09 13:00:50;;;;;;;3.47;1.80;;;;;;;;;;5082297;28;20028;-86
2023/08/09 13:03:15;;;;;;;4.32;2.00;;;;;;;;;;5076415;28;20028;-88
2023/08/09 13:05:43;;;;;;;5.60;2.00;;;;;;;;;;5084114;28;20047;-86
2023/08/09 13:08:09;;;;;;;6.07;2.10;;;;;;;;;;5077839;28;20024;-87
2023/08/09 13:10:34;;;;;;;4.30;2.10;;;;;;;;;;5083786;28;20024;-87
2023/08/09 13:12:59;;;;;;;3.67;1.80;;;;;;;;;;5084083;28;20048;-87
2023/08/09 13:15:25;;;;;;;3.47;1.98;;;;;;;;;;5083573;28;20020;-88
2023/08/09 13:17:50;;;;;;;3.28;2.00;;;;;;;;;;5076994;28;20039;-87
2023/08/09 13:20:16;;;;;;;3.83;1.95;;;;;;;;;;5080569;28;20012;-88
2023/08/09 13:22:42;;;;;;;4.68;2.17;;;;;;;;;;5076905;28;20024;-86
2023/08/09 13:25:09;;;;;;;8.20;2.67;;;;;;;;;;5091153;28;20024;-86
2023/08/09 13:27:39;;;;;;;4.63;2.15;;;;;;;;;;5091734;28;20573;-88
2023/08/09 13:30:06;;;;;;;5.38;2.10;;;;;;;;;;5090954;28;20021;-87
2023/08/09 13:32:32;;;;;;;3.63;1.70;;;;;;;;;;5092141;28;20019;-88
2023/08/09 13:34:58;;;;;;;3.15;1.92;;;;;;;;;;5094435;28;20476;-87
2023/08/09 13:37:24;;;;;;;3.78;1.80;;;;;;;;;;5092977;28;20020;-86
2023/08/09 13:39:49;;;;;;;3.58;1.80;;;;;;;;;;5095768;28;20031;-88
2023/08/09 13:42:15;;;;;;;3.85;1.75;;;;;;;;;;5096031;28;20078;-88
2023/08/09 13:44:40;;;;;;;5.22;2.10;;;;;;;;;;5094305;28;20028;-86
2023/08/09 13:47:06;;;;;;;4.18;1.80;;;;;;;;;;5094268;28;20020;-86
2023/08/09 13:49:32;;;;;;;5.07;1.75;;;;;;;;;;5095411;28;20417;-87
2023/08/09 13:51:57;;;;;;;6.63;2.30;;;;;;;;;;5090506;28;20104;-88
2023/08/09 13:54:22;;;;;;;4.35;1.60;;;;;;;;;;5095775;28;20470;-88
2023/08/09 13:56:48;;;;;;;5.38;1.80;;;;;;;;;;5095540;28;20066;-88
2023/08/09 13:59:14;;;;;;;6.18;1.80;;;;;;;;;;5095146;28;20020;-87
2023/08/09 14:01:40;;;;;;;3.13;1.75;;;;;;;;;;5093391;28;20020;-88
2023/08/09 14:04:05;;;;;;;5.90;1.55;;;;;;;;;;5094776;28;20020;-87
2023/08/09 14:06:31;;;;;;;4.72;1.60;;;;;;;;;;5093114;28;20031;-88
2023/08/09 14:08:56;;;;;;;5.47;1.80;;;;;;;;;;5093980;28;20020;-88
2023/08/09 14:11:22;;;;;;;4.85;1.70;;;;;;;;;;5093144;28;20016;-89
2023/08/09 14:13:47;;;;;;;4.80;1.85;;;;;;;;;;5092694;28;20115;-89
2023/08/09 14:16:13;;;;;;;4.10;1.38;;;;;;;;;;5073835;28;20039;-88
2023/08/09 14:18:39;;;;;;;3.72;1.30;;;;;;;;;;5092513;28;20019;-86
2023/08/09 14:21:04;;;;;;;4.35;1.50;;;;;;;;;;5086938;28;20052;-89
2023/08/09 14:23:29;;;;;;;4.32;1.85;;;;;;;;;;5088640;28;20024;-88
2023/08/09 14:25:55;;;;;;;6.43;1.80;;;;;;;;;;5093577;28;20016;-89
2023/08/09 14:28:21;;;;;;;5.05;1.40;;;;;;;;;;5082436;28;20111;-89
2023/08/09 14:30:48;;;;;;;4.85;1.60;;;;;;;;;;5087226;28;20035;-89
2023/08/09 14:33:13;;;;;;;5.30;1.70;;;;;;;;;;5091502;28;20020;-88
2023/08/09 14:35:39;;;;;;;3.83;1.83;;;;;;;;;;5089261;28;20024;-89
2023/08/09 14:38:04;;;;;;;4.15;1.48;;;;;;;;;;5097441;28;20020;-88